Radisson, New York
Current Conditions -  °F | °C
As of 5:54 AM on Tuesday 21 Oct 2014 (Local Time) from KFZY Reporting Station
Light Rain Light Rain  
Wind Chill: 45°   Ceiling: 3600
Heat Index: 47°   Visibility: 10mi
Dew Point: 44°   Wind: 5mph
Humidity: 90%   Direction: NA
Pressure: 29.82"   Gusts: NA
Location:  43.1825°N, 76.3664°W
Report Text: KFZY 210954Z AUTO VRB04KT 10SM -RA OVC036 08/07 A2982 RMK AO2 RAB23 SLP099 P0001 T00830067
Loading
Personal Weather Stations






























Interactive Weather Map
Tropical Storm Tracking
New forecast layout! Learn more

10-Day Weather Forecast

Advertisements
Track Severe Weather on mobile